sensor_id;sensor_type;location;lat;lon;timestamp;P1;durP1;ratioP1;P2;durP2;ratioP2
36253;SDS011;22291;52.250;21.228;2022-07-09T00:00:04;3.15;;;2.47;;
36253;SDS011;22291;52.250;21.228;2022-07-09T00:02:34;5.22;;;2.75;;
36253;SDS011;22291;52.250;21.228;2022-07-09T00:05:00;3.20;;;2.90;;
36253;SDS011;22291;52.250;21.228;2022-07-09T00:07:27;3.20;;;2.70;;
36253;SDS011;22291;52.250;21.228;2022-07-09T00:09:53;3.67;;;3.00;;
36253;SDS011;22291;52.250;21.228;2022-07-09T00:12:19;5.25;;;2.65;;
36253;SDS011;22291;52.250;21.228;2022-07-09T00:14:45;4.30;;;2.60;;
36253;SDS011;22291;52.250;21.228;2022-07-09T00:17:12;5.50;;;2.45;;
36253;SDS011;22291;52.250;21.228;2022-07-09T00:19:38;4.30;;;2.52;;
36253;SDS011;22291;52.250;21.228;2022-07-09T00:22:04;3.65;;;2.75;;
36253;SDS011;22291;52.250;21.228;2022-07-09T00:24:32;3.00;;;2.60;;
36253;SDS011;22291;52.250;21.228;2022-07-09T00:26:58;3.92;;;2.40;;
36253;SDS011;22291;52.250;21.228;2022-07-09T00:29:25;3.87;;;2.72;;
36253;SDS011;22291;52.250;21.228;2022-07-09T00:31:51;4.58;;;2.70;;
36253;SDS011;22291;52.250;21.228;2022-07-09T00:34:17;5.28;;;2.67;;
36253;SDS011;22291;52.250;21.228;2022-07-09T00:36:42;7.55;;;2.70;;
36253;SDS011;22291;52.250;21.228;2022-07-09T00:39:09;4.95;;;2.67;;
36253;SDS011;22291;52.250;21.228;2022-07-09T00:41:35;5.28;;;2.67;;
36253;SDS011;22291;52.250;21.228;2022-07-09T00:44:01;4.42;;;2.52;;
36253;SDS011;22291;52.250;21.228;2022-07-09T00:46:27;4.95;;;3.12;;
36253;SDS011;22291;52.250;21.228;2022-07-09T00:48:53;3.77;;;2.52;;
36253;SDS011;22291;52.250;21.228;2022-07-09T00:51:19;7.47;;;3.12;;
36253;SDS011;22291;52.250;21.228;2022-07-09T00:53:46;4.75;;;3.02;;
36253;SDS011;22291;52.250;21.228;2022-07-09T00:56:14;3.52;;;2.75;;
36253;SDS011;22291;52.250;21.228;2022-07-09T00:58:41;4.10;;;2.72;;
36253;SDS011;22291;52.250;21.228;2022-07-09T01:01:10;3.60;;;2.83;;
36253;SDS011;22291;52.250;21.228;2022-07-09T01:03:36;5.67;;;2.65;;
36253;SDS011;22291;52.250;21.228;2022-07-09T01:06:02;10.78;;;3.02;;
36253;SDS011;22291;52.250;21.228;2022-07-09T01:08:28;6.78;;;2.92;;
36253;SDS011;22291;52.250;21.228;2022-07-09T01:10:54;3.15;;;2.40;;
36253;SDS011;22291;52.250;21.228;2022-07-09T01:13:21;7.72;;;3.47;;
36253;SDS011;22291;52.250;21.228;2022-07-09T01:15:47;5.47;;;3.02;;
36253;SDS011;22291;52.250;21.228;2022-07-09T01:18:13;3.50;;;2.20;;
36253;SDS011;22291;52.250;21.228;2022-07-09T01:20:39;2.77;;;2.47;;
36253;SDS011;22291;52.250;21.228;2022-07-09T01:23:05;7.37;;;2.70;;
36253;SDS011;22291;52.250;21.228;2022-07-09T01:25:40;5.15;;;2.67;;
36253;SDS011;22291;52.250;21.228;2022-07-09T01:28:06;7.58;;;2.75;;
36253;SDS011;22291;52.250;21.228;2022-07-09T01:30:36;4.17;;;2.77;;
36253;SDS011;22291;52.250;21.228;2022-07-09T01:33:05;3.45;;;2.85;;
36253;SDS011;22291;52.250;21.228;2022-07-09T01:35:31;4.67;;;3.08;;
36253;SDS011;22291;52.250;21.228;2022-07-09T01:37:57;4.45;;;3.00;;
36253;SDS011;22291;52.250;21.228;2022-07-09T01:40:23;3.35;;;2.85;;
36253;SDS011;22291;52.250;21.228;2022-07-09T01:42:50;6.37;;;3.30;;
36253;SDS011;22291;52.250;21.228;2022-07-09T01:45:16;3.02;;;2.65;;
36253;SDS011;22291;52.250;21.228;2022-07-09T01:47:43;5.22;;;2.70;;
36253;SDS011;22291;52.250;21.228;2022-07-09T01:50:09;4.95;;;2.65;;
36253;SDS011;22291;52.250;21.228;2022-07-09T01:52:36;4.12;;;3.50;;
36253;SDS011;22291;52.250;21.228;2022-07-09T01:55:03;6.67;;;3.50;;
36253;SDS011;22291;52.250;21.228;2022-07-09T01:57:31;3.65;;;3.00;;
36253;SDS011;22291;52.250;21.228;2022-07-09T01:59:57;4.47;;;2.75;;
36253;SDS011;22291;52.250;21.228;2022-07-09T02:02:23;5.03;;;3.33;;
36253;SDS011;22291;52.250;21.228;2022-07-09T02:04:49;4.20;;;2.77;;
36253;SDS011;22291;52.250;21.228;2022-07-09T02:07:15;4.60;;;2.62;;
36253;SDS011;22291;52.250;21.228;2022-07-09T02:09:42;6.00;;;2.85;;
36253;SDS011;22291;52.250;21.228;2022-07-09T02:12:08;5.33;;;2.98;;
36253;SDS011;22291;52.250;21.228;2022-07-09T02:14:34;4.25;;;2.98;;
36253;SDS011;22291;52.250;21.228;2022-07-09T02:17:00;3.40;;;2.90;;
36253;SDS011;22291;52.250;21.228;2022-07-09T02:19:26;5.37;;;3.02;;
36253;SDS011;22291;52.250;21.228;2022-07-09T02:21:52;7.05;;;2.77;;
36253;SDS011;22291;52.250;21.228;2022-07-09T02:24:18;5.45;;;2.98;;
36253;SDS011;22291;52.250;21.228;2022-07-09T02:26:45;4.95;;;3.40;;
36253;SDS011;22291;52.250;21.228;2022-07-09T02:29:11;9.08;;;3.60;;
36253;SDS011;22291;52.250;21.228;2022-07-09T02:31:38;3.25;;;3.00;;
36253;SDS011;22291;52.250;21.228;2022-07-09T02:34:04;7.78;;;4.00;;
36253;SDS011;22291;52.250;21.228;2022-07-09T02:36:30;5.67;;;3.60;;
36253;SDS011;22291;52.250;21.228;2022-07-09T02:38:56;7.90;;;3.27;;
36253;SDS011;22291;52.250;21.228;2022-07-09T02:41:22;5.10;;;3.37;;
36253;SDS011;22291;52.250;21.228;2022-07-09T02:43:48;4.85;;;2.83;;
36253;SDS011;22291;52.250;21.228;2022-07-09T02:46:14;6.08;;;3.17;;
36253;SDS011;22291;52.250;21.228;2022-07-09T02:48:40;5.15;;;3.47;;
36253;SDS011;22291;52.250;21.228;2022-07-09T02:51:07;5.42;;;3.00;;
36253;SDS011;22291;52.250;21.228;2022-07-09T02:53:32;5.12;;;3.87;;
36253;SDS011;22291;52.250;21.228;2022-07-09T02:55:59;4.53;;;3.02;;
36253;SDS011;22291;52.250;21.228;2022-07-09T02:58:25;6.67;;;3.58;;
36253;SDS011;22291;52.250;21.228;2022-07-09T03:00:51;7.12;;;3.30;;
36253;SDS011;22291;52.250;21.228;2022-07-09T03:03:17;5.50;;;3.40;;
36253;SDS011;22291;52.250;21.228;2022-07-09T03:05:43;7.80;;;3.70;;
36253;SDS011;22291;52.250;21.228;2022-07-09T03:08:09;9.73;;;3.92;;
36253;SDS011;22291;52.250;21.228;2022-07-09T03:10:35;7.08;;;3.35;;
36253;SDS011;22291;52.250;21.228;2022-07-09T03:13:01;5.83;;;3.42;;
36253;SDS011;22291;52.250;21.228;2022-07-09T03:15:28;7.45;;;3.70;;
36253;SDS011;22291;52.250;21.228;2022-07-09T03:17:54;9.78;;;4.08;;
36253;SDS011;22291;52.250;21.228;2022-07-09T03:20:20;7.53;;;4.30;;
36253;SDS011;22291;52.250;21.228;2022-07-09T03:22:46;7.17;;;3.90;;
36253;SDS011;22291;52.250;21.228;2022-07-09T03:25:12;6.35;;;4.10;;
36253;SDS011;22291;52.250;21.228;2022-07-09T03:27:38;9.70;;;4.70;;
36253;SDS011;22291;52.250;21.228;2022-07-09T03:30:05;7.00;;;4.50;;
36253;SDS011;22291;52.250;21.228;2022-07-09T03:32:33;7.67;;;3.95;;
36253;SDS011;22291;52.250;21.228;2022-07-09T03:34:59;8.60;;;4.60;;
36253;SDS011;22291;52.250;21.228;2022-07-09T03:37:25;8.13;;;4.60;;
36253;SDS011;22291;52.250;21.228;2022-07-09T03:39:51;13.55;;;4.60;;
36253;SDS011;22291;52.250;21.228;2022-07-09T03:42:17;9.98;;;4.20;;
36253;SDS011;22291;52.250;21.228;2022-07-09T03:44:43;10.05;;;4.67;;
36253;SDS011;22291;52.250;21.228;2022-07-09T03:47:09;5.75;;;4.37;;
36253;SDS011;22291;52.250;21.228;2022-07-09T03:49:35;13.18;;;4.80;;
36253;SDS011;22291;52.250;21.228;2022-07-09T03:52:01;9.95;;;4.58;;
36253;SDS011;22291;52.250;21.228;2022-07-09T03:54:28;7.58;;;5.15;;
36253;SDS011;22291;52.250;21.228;2022-07-09T03:56:54;14.93;;;5.00;;
36253;SDS011;22291;52.250;21.228;2022-07-09T03:59:20;9.65;;;4.40;;
36253;SDS011;22291;52.250;21.228;2022-07-09T04:01:46;10.00;;;4.95;;
36253;SDS011;22291;52.250;21.228;2022-07-09T04:04:12;8.43;;;4.30;;
36253;SDS011;22291;52.250;21.228;2022-07-09T04:06:38;10.20;;;4.53;;
36253;SDS011;22291;52.250;21.228;2022-07-09T04:09:05;12.33;;;4.90;;
36253;SDS011;22291;52.250;21.228;2022-07-09T04:11:31;9.65;;;4.90;;
36253;SDS011;22291;52.250;21.228;2022-07-09T04:13:58;10.80;;;5.20;;
36253;SDS011;22291;52.250;21.228;2022-07-09T04:16:25;10.03;;;4.70;;
36253;SDS011;22291;52.250;21.228;2022-07-09T04:18:53;10.20;;;4.62;;
36253;SDS011;22291;52.250;21.228;2022-07-09T04:21:20;13.18;;;5.28;;
36253;SDS011;22291;52.250;21.228;2022-07-09T04:23:47;14.20;;;5.00;;
36253;SDS011;22291;52.250;21.228;2022-07-09T04:26:15;9.65;;;4.80;;
36253;SDS011;22291;52.250;21.228;2022-07-09T04:28:42;10.98;;;5.03;;
36253;SDS011;22291;52.250;21.228;2022-07-09T04:31:08;12.35;;;5.03;;
36253;SDS011;22291;52.250;21.228;2022-07-09T04:33:34;9.00;;;4.87;;
36253;SDS011;22291;52.250;21.228;2022-07-09T04:36:00;9.98;;;4.80;;
36253;SDS011;22291;52.250;21.228;2022-07-09T04:38:26;10.72;;;5.30;;
36253;SDS011;22291;52.250;21.228;2022-07-09T04:40:54;11.73;;;5.47;;
36253;SDS011;22291;52.250;21.228;2022-07-09T04:43:20;10.23;;;5.72;;
36253;SDS011;22291;52.250;21.228;2022-07-09T04:45:47;10.60;;;5.62;;
36253;SDS011;22291;52.250;21.228;2022-07-09T04:48:13;12.10;;;5.28;;
36253;SDS011;22291;52.250;21.228;2022-07-09T04:50:39;12.43;;;6.00;;
36253;SDS011;22291;52.250;21.228;2022-07-09T04:53:05;16.10;;;5.92;;
36253;SDS011;22291;52.250;21.228;2022-07-09T04:55:31;11.57;;;5.40;;
36253;SDS011;22291;52.250;21.228;2022-07-09T04:57:57;14.15;;;5.55;;
36253;SDS011;22291;52.250;21.228;2022-07-09T05:00:23;10.10;;;5.35;;
36253;SDS011;22291;52.250;21.228;2022-07-09T05:02:49;14.53;;;6.65;;
36253;SDS011;22291;52.250;21.228;2022-07-09T05:05:16;14.78;;;5.87;;
36253;SDS011;22291;52.250;21.228;2022-07-09T05:07:41;15.23;;;4.83;;
36253;SDS011;22291;52.250;21.228;2022-07-09T05:10:08;11.12;;;4.95;;
36253;SDS011;22291;52.250;21.228;2022-07-09T05:12:34;11.30;;;5.10;;
36253;SDS011;22291;52.250;21.228;2022-07-09T05:15:01;9.10;;;4.95;;
36253;SDS011;22291;52.250;21.228;2022-07-09T05:17:27;9.38;;;4.85;;
36253;SDS011;22291;52.250;21.228;2022-07-09T05:19:55;11.15;;;5.03;;
36253;SDS011;22291;52.250;21.228;2022-07-09T05:22:21;12.88;;;4.72;;
36253;SDS011;22291;52.250;21.228;2022-07-09T05:24:48;12.90;;;5.17;;
36253;SDS011;22291;52.250;21.228;2022-07-09T05:27:14;9.58;;;4.75;;
36253;SDS011;22291;52.250;21.228;2022-07-09T05:29:40;12.63;;;4.87;;
36253;SDS011;22291;52.250;21.228;2022-07-09T05:32:07;11.03;;;4.10;;
36253;SDS011;22291;52.250;21.228;2022-07-09T05:34:33;9.55;;;4.53;;
36253;SDS011;22291;52.250;21.228;2022-07-09T05:36:59;10.95;;;4.72;;
36253;SDS011;22291;52.250;21.228;2022-07-09T05:39:25;10.65;;;4.70;;
36253;SDS011;22291;52.250;21.228;2022-07-09T05:41:51;11.38;;;4.08;;
36253;SDS011;22291;52.250;21.228;2022-07-09T05:44:20;8.50;;;4.28;;
36253;SDS011;22291;52.250;21.228;2022-07-09T05:46:46;10.58;;;3.83;;
36253;SDS011;22291;52.250;21.228;2022-07-09T05:49:12;9.18;;;4.17;;
36253;SDS011;22291;52.250;21.228;2022-07-09T05:51:38;7.85;;;4.00;;
36253;SDS011;22291;52.250;21.228;2022-07-09T05:54:04;6.90;;;3.37;;
36253;SDS011;22291;52.250;21.228;2022-07-09T05:56:30;8.05;;;3.90;;
36253;SDS011;22291;52.250;21.228;2022-07-09T05:58:56;7.95;;;4.08;;
36253;SDS011;22291;52.250;21.228;2022-07-09T06:01:22;7.83;;;3.12;;
36253;SDS011;22291;52.250;21.228;2022-07-09T06:03:48;9.90;;;3.62;;
36253;SDS011;22291;52.250;21.228;2022-07-09T06:06:14;9.95;;;3.45;;
36253;SDS011;22291;52.250;21.228;2022-07-09T06:08:40;8.73;;;3.37;;
36253;SDS011;22291;52.250;21.228;2022-07-09T06:11:06;10.65;;;5.37;;
36253;SDS011;22291;52.250;21.228;2022-07-09T06:13:32;6.28;;;4.17;;
36253;SDS011;22291;52.250;21.228;2022-07-09T06:15:58;8.38;;;2.83;;
36253;SDS011;22291;52.250;21.228;2022-07-09T06:18:24;8.73;;;3.87;;
36253;SDS011;22291;52.250;21.228;2022-07-09T06:20:50;6.00;;;3.60;;
36253;SDS011;22291;52.250;21.228;2022-07-09T06:23:16;6.62;;;3.00;;
36253;SDS011;22291;52.250;21.228;2022-07-09T06:25:43;12.33;;;3.60;;
36253;SDS011;22291;52.250;21.228;2022-07-09T06:28:09;6.87;;;3.20;;
36253;SDS011;22291;52.250;21.228;2022-07-09T06:30:35;9.30;;;3.40;;
36253;SDS011;22291;52.250;21.228;2022-07-09T06:33:01;8.43;;;3.10;;
36253;SDS011;22291;52.250;21.228;2022-07-09T06:35:28;8.38;;;2.77;;
36253;SDS011;22291;52.250;21.228;2022-07-09T06:37:56;8.13;;;2.90;;
36253;SDS011;22291;52.250;21.228;2022-07-09T06:40:23;10.78;;;3.60;;
36253;SDS011;22291;52.250;21.228;2022-07-09T06:42:50;7.95;;;3.12;;
36253;SDS011;22291;52.250;21.228;2022-07-09T06:45:16;5.20;;;3.12;;
36253;SDS011;22291;52.250;21.228;2022-07-09T06:47:42;5.17;;;2.98;;
36253;SDS011;22291;52.250;21.228;2022-07-09T06:50:08;9.75;;;3.17;;
36253;SDS011;22291;52.250;21.228;2022-07-09T06:52:34;9.00;;;3.35;;
36253;SDS011;22291;52.250;21.228;2022-07-09T06:55:01;7.65;;;2.90;;
36253;SDS011;22291;52.250;21.228;2022-07-09T06:57:28;8.78;;;3.40;;
36253;SDS011;22291;52.250;21.228;2022-07-09T06:59:56;9.38;;;3.65;;
36253;SDS011;22291;52.250;21.228;2022-07-09T07:02:22;9.48;;;4.15;;
36253;SDS011;22291;52.250;21.228;2022-07-09T07:04:48;6.45;;;3.77;;
36253;SDS011;22291;52.250;21.228;2022-07-09T07:07:14;10.78;;;3.60;;
36253;SDS011;22291;52.250;21.228;2022-07-09T07:09:40;6.45;;;3.17;;
36253;SDS011;22291;52.250;21.228;2022-07-09T07:12:07;5.45;;;3.10;;
36253;SDS011;22291;52.250;21.228;2022-07-09T07:14:34;7.08;;;3.10;;
36253;SDS011;22291;52.250;21.228;2022-07-09T07:17:00;5.42;;;3.08;;
36253;SDS011;22291;52.250;21.228;2022-07-09T07:19:26;8.03;;;2.80;;
36253;SDS011;22291;52.250;21.228;2022-07-09T07:21:52;5.10;;;2.80;;
36253;SDS011;22291;52.250;21.228;2022-07-09T07:24:20;4.55;;;2.60;;
36253;SDS011;22291;52.250;21.228;2022-07-09T07:26:46;4.70;;;2.90;;
36253;SDS011;22291;52.250;21.228;2022-07-09T07:29:13;4.47;;;2.70;;
36253;SDS011;22291;52.250;21.228;2022-07-09T07:31:39;6.40;;;2.87;;
36253;SDS011;22291;52.250;21.228;2022-07-09T07:34:05;14.00;;;8.10;;
36253;SDS011;22291;52.250;21.228;2022-07-09T07:36:31;6.97;;;3.47;;
36253;SDS011;22291;52.250;21.228;2022-07-09T07:38:57;5.83;;;2.58;;
36253;SDS011;22291;52.250;21.228;2022-07-09T07:41:23;6.35;;;3.20;;
36253;SDS011;22291;52.250;21.228;2022-07-09T07:43:49;4.58;;;2.80;;
36253;SDS011;22291;52.250;21.228;2022-07-09T07:46:15;5.30;;;2.85;;
36253;SDS011;22291;52.250;21.228;2022-07-09T07:48:43;4.03;;;3.27;;
36253;SDS011;22291;52.250;21.228;2022-07-09T07:51:09;4.95;;;4.10;;
36253;SDS011;22291;52.250;21.228;2022-07-09T07:53:36;7.58;;;3.67;;
36253;SDS011;22291;52.250;21.228;2022-07-09T07:56:03;4.05;;;3.45;;
36253;SDS011;22291;52.250;21.228;2022-07-09T07:58:31;4.77;;;4.10;;
36253;SDS011;22291;52.250;21.228;2022-07-09T08:00:58;3.30;;;3.10;;
36253;SDS011;22291;52.250;21.228;2022-07-09T08:03:25;7.47;;;3.30;;
36253;SDS011;22291;52.250;21.228;2022-07-09T08:05:52;3.77;;;2.85;;
36253;SDS011;22291;52.250;21.228;2022-07-09T08:08:18;3.58;;;3.20;;
36253;SDS011;22291;52.250;21.228;2022-07-09T08:10:45;3.92;;;2.92;;
36253;SDS011;22291;52.250;21.228;2022-07-09T08:13:13;3.42;;;2.95;;
36253;SDS011;22291;52.250;21.228;2022-07-09T08:15:41;3.50;;;2.75;;
36253;SDS011;22291;52.250;21.228;2022-07-09T08:18:07;3.95;;;3.17;;
36253;SDS011;22291;52.250;21.228;2022-07-09T08:20:35;2.70;;;2.40;;
36253;SDS011;22291;52.250;21.228;2022-07-09T08:23:02;2.20;;;2.00;;
36253;SDS011;22291;52.250;21.228;2022-07-09T08:25:29;2.65;;;2.45;;
36253;SDS011;22291;52.250;21.228;2022-07-09T08:27:54;2.52;;;2.33;;
36253;SDS011;22291;52.250;21.228;2022-07-09T08:30:21;2.20;;;2.10;;
36253;SDS011;22291;52.250;21.228;2022-07-09T08:32:47;2.80;;;2.22;;
36253;SDS011;22291;52.250;21.228;2022-07-09T08:35:13;2.40;;;2.15;;
36253;SDS011;22291;52.250;21.228;2022-07-09T08:37:40;2.45;;;2.25;;
36253;SDS011;22291;52.250;21.228;2022-07-09T08:40:06;3.72;;;1.95;;
36253;SDS011;22291;52.250;21.228;2022-07-09T08:42:33;2.37;;;2.00;;
36253;SDS011;22291;52.250;21.228;2022-07-09T08:45:00;4.47;;;2.12;;
36253;SDS011;22291;52.250;21.228;2022-07-09T08:47:28;2.17;;;1.80;;
36253;SDS011;22291;52.250;21.228;2022-07-09T08:49:56;2.12;;;1.52;;
36253;SDS011;22291;52.250;21.228;2022-07-09T08:52:24;10.13;;;8.28;;
36253;SDS011;22291;52.250;21.228;2022-07-09T08:54:53;3.60;;;1.92;;
36253;SDS011;22291;52.250;21.228;2022-07-09T08:57:20;2.02;;;1.37;;
36253;SDS011;22291;52.250;21.228;2022-07-09T08:59:46;3.42;;;1.30;;
36253;SDS011;22291;52.250;21.228;2022-07-09T09:02:12;4.03;;;1.30;;
36253;SDS011;22291;52.250;21.228;2022-07-09T09:04:40;3.33;;;1.30;;
36253;SDS011;22291;52.250;21.228;2022-07-09T09:07:16;1.30;;;1.20;;
36253;SDS011;22291;52.250;21.228;2022-07-09T09:09:49;4.25;;;1.32;;
36253;SDS011;22291;52.250;21.228;2022-07-09T09:12:15;2.45;;;1.25;;
36253;SDS011;22291;52.250;21.228;2022-07-09T09:14:49;1.82;;;1.20;;
36253;SDS011;22291;52.250;21.228;2022-07-09T09:17:15;2.17;;;1.45;;
36253;SDS011;22291;52.250;21.228;2022-07-09T09:19:42;3.45;;;0.98;;
36253;SDS011;22291;52.250;21.228;2022-07-09T09:22:08;3.72;;;0.95;;
36253;SDS011;22291;52.250;21.228;2022-07-09T09:24:35;2.75;;;1.40;;
36253;SDS011;22291;52.250;21.228;2022-07-09T09:27:01;4.28;;;1.37;;
36253;SDS011;22291;52.250;21.228;2022-07-09T09:29:29;2.65;;;1.60;;
36253;SDS011;22291;52.250;21.228;2022-07-09T09:31:55;4.28;;;1.30;;
36253;SDS011;22291;52.250;21.228;2022-07-09T09:34:22;2.27;;;1.22;;
36253;SDS011;22291;52.250;21.228;2022-07-09T09:36:50;3.30;;;1.27;;
36253;SDS011;22291;52.250;21.228;2022-07-09T09:39:21;5.22;;;1.20;;
36253;SDS011;22291;52.250;21.228;2022-07-09T09:41:59;2.22;;;0.82;;
36253;SDS011;22291;52.250;21.228;2022-07-09T09:44:28;3.77;;;0.80;;
36253;SDS011;22291;52.250;21.228;2022-07-09T09:46:59;3.40;;;1.32;;
36253;SDS011;22291;52.250;21.228;2022-07-09T09:49:25;3.90;;;1.32;;
36253;SDS011;22291;52.250;21.228;2022-07-09T09:52:04;3.92;;;1.25;;
36253;SDS011;22291;52.250;21.228;2022-07-09T09:54:35;2.17;;;1.12;;
36253;SDS011;22291;52.250;21.228;2022-07-09T09:57:05;5.20;;;0.80;;
36253;SDS011;22291;52.250;21.228;2022-07-09T09:59:37;3.30;;;1.60;;
36253;SDS011;22291;52.250;21.228;2022-07-09T10:02:05;2.33;;;1.15;;
36253;SDS011;22291;52.250;21.228;2022-07-09T10:04:35;2.67;;;1.80;;
36253;SDS011;22291;52.250;21.228;2022-07-09T10:07:04;2.22;;;1.20;;
36253;SDS011;22291;52.250;21.228;2022-07-09T10:09:32;1.37;;;0.80;;
36253;SDS011;22291;52.250;21.228;2022-07-09T10:11:58;2.45;;;1.20;;
36253;SDS011;22291;52.250;21.228;2022-07-09T10:16:55;1.72;;;1.00;;
36253;SDS011;22291;52.250;21.228;2022-07-09T10:19:24;4.75;;;2.67;;
36253;SDS011;22291;52.250;21.228;2022-07-09T10:21:58;5.58;;;1.50;;
36253;SDS011;22291;52.250;21.228;2022-07-09T10:24:29;3.42;;;1.20;;
36253;SDS011;22291;52.250;21.228;2022-07-09T10:27:04;2.35;;;1.30;;
36253;SDS011;22291;52.250;21.228;2022-07-09T10:29:36;3.00;;;1.55;;
36253;SDS011;22291;52.250;21.228;2022-07-09T10:32:23;1.20;;;1.10;;
36253;SDS011;22291;52.250;21.228;2022-07-09T10:42:45;2.40;;;1.12;;
36253;SDS011;22291;52.250;21.228;2022-07-09T10:45:24;2.87;;;1.20;;
36253;SDS011;22291;52.250;21.228;2022-07-09T10:47:57;5.62;;;1.42;;
36253;SDS011;22291;52.250;21.228;2022-07-09T10:50:25;5.67;;;2.00;;
36253;SDS011;22291;52.250;21.228;2022-07-09T10:52:54;2.58;;;1.05;;
36253;SDS011;22291;52.250;21.228;2022-07-09T10:55:23;4.45;;;1.55;;
36253;SDS011;22291;52.250;21.228;2022-07-09T10:57:52;3.52;;;1.17;;
36253;SDS011;22291;52.250;21.228;2022-07-09T11:00:20;4.65;;;1.45;;
36253;SDS011;22291;52.250;21.228;2022-07-09T11:02:56;6.50;;;1.80;;
36253;SDS011;22291;52.250;21.228;2022-07-09T11:05:28;4.83;;;1.42;;
36253;SDS011;22291;52.250;21.228;2022-07-09T11:08:00;2.67;;;1.47;;
36253;SDS011;22291;52.250;21.228;2022-07-09T11:10:30;3.05;;;1.70;;
36253;SDS011;22291;52.250;21.228;2022-07-09T11:13:01;3.87;;;1.50;;
36253;SDS011;22291;52.250;21.228;2022-07-09T11:15:29;4.10;;;1.37;;
36253;SDS011;22291;52.250;21.228;2022-07-09T11:18:09;8.13;;;1.47;;
36253;SDS011;22291;52.250;21.228;2022-07-09T11:20:41;6.12;;;1.70;;
36253;SDS011;22291;52.250;21.228;2022-07-09T11:23:09;2.33;;;1.52;;
36253;SDS011;22291;52.250;21.228;2022-07-09T11:25:37;5.28;;;2.12;;
36253;SDS011;22291;52.250;21.228;2022-07-09T11:28:04;1.90;;;1.10;;
36253;SDS011;22291;52.250;21.228;2022-07-09T11:30:31;2.35;;;1.57;;
36253;SDS011;22291;52.250;21.228;2022-07-09T11:32:57;2.17;;;1.62;;
36253;SDS011;22291;52.250;21.228;2022-07-09T11:35:26;2.20;;;1.40;;
36253;SDS011;22291;52.250;21.228;2022-07-09T11:38:01;2.52;;;1.67;;
36253;SDS011;22291;52.250;21.228;2022-07-09T11:40:28;2.27;;;1.45;;
36253;SDS011;22291;52.250;21.228;2022-07-09T11:42:56;4.47;;;1.57;;
36253;SDS011;22291;52.250;21.228;2022-07-09T11:45:24;3.22;;;1.80;;
36253;SDS011;22291;52.250;21.228;2022-07-09T11:48:06;6.10;;;1.70;;
36253;SDS011;22291;52.250;21.228;2022-07-09T11:50:41;2.90;;;1.60;;
36253;SDS011;22291;52.250;21.228;2022-07-09T11:53:24;7.40;;;2.33;;
36253;SDS011;22291;52.250;21.228;2022-07-09T11:56:02;7.25;;;2.42;;
36253;SDS011;22291;52.250;21.228;2022-07-09T11:58:32;4.37;;;1.60;;
36253;SDS011;22291;52.250;21.228;2022-07-09T12:00:58;4.17;;;1.70;;
36253;SDS011;22291;52.250;21.228;2022-07-09T12:03:28;6.00;;;1.87;;
36253;SDS011;22291;52.250;21.228;2022-07-09T12:05:58;5.42;;;1.40;;
36253;SDS011;22291;52.250;21.228;2022-07-09T12:08:27;9.88;;;4.72;;
36253;SDS011;22291;52.250;21.228;2022-07-09T12:10:57;4.12;;;2.35;;
36253;SDS011;22291;52.250;21.228;2022-07-09T12:13:25;6.65;;;1.98;;
36253;SDS011;22291;52.250;21.228;2022-07-09T12:15:51;4.72;;;1.50;;
36253;SDS011;22291;52.250;21.228;2022-07-09T12:18:17;5.95;;;1.60;;
36253;SDS011;22291;52.250;21.228;2022-07-09T12:20:43;4.42;;;1.70;;
36253;SDS011;22291;52.250;21.228;2022-07-09T12:23:09;3.05;;;1.92;;
36253;SDS011;22291;52.250;21.228;2022-07-09T12:25:36;2.35;;;1.95;;
36253;SDS011;22291;52.250;21.228;2022-07-09T12:28:02;4.70;;;1.70;;
36253;SDS011;22291;52.250;21.228;2022-07-09T12:30:28;5.50;;;3.00;;
36253;SDS011;22291;52.250;21.228;2022-07-09T12:32:55;5.53;;;1.75;;
36253;SDS011;22291;52.250;21.228;2022-07-09T12:35:25;3.42;;;1.72;;
36253;SDS011;22291;52.250;21.228;2022-07-09T12:37:52;3.50;;;2.08;;
36253;SDS011;22291;52.250;21.228;2022-07-09T12:40:21;3.67;;;1.77;;
36253;SDS011;22291;52.250;21.228;2022-07-09T12:42:48;2.02;;;1.52;;
36253;SDS011;22291;52.250;21.228;2022-07-09T12:45:14;4.35;;;2.37;;
36253;SDS011;22291;52.250;21.228;2022-07-09T12:47:40;2.40;;;1.62;;
36253;SDS011;22291;52.250;21.228;2022-07-09T12:50:07;2.52;;;1.80;;
36253;SDS011;22291;52.250;21.228;2022-07-09T12:52:36;3.98;;;2.02;;
36253;SDS011;22291;52.250;21.228;2022-07-09T12:55:02;5.85;;;1.77;;
36253;SDS011;22291;52.250;21.228;2022-07-09T12:57:30;3.20;;;1.22;;
36253;SDS011;22291;52.250;21.228;2022-07-09T12:59:57;3.20;;;1.67;;
36253;SDS011;22291;52.250;21.228;2022-07-09T13:02:23;5.35;;;1.47;;
36253;SDS011;22291;52.250;21.228;2022-07-09T13:04:49;1.92;;;1.12;;
36253;SDS011;22291;52.250;21.228;2022-07-09T13:07:15;1.65;;;1.52;;
36253;SDS011;22291;52.250;21.228;2022-07-09T13:09:41;3.42;;;1.60;;
36253;SDS011;22291;52.250;21.228;2022-07-09T13:12:07;3.50;;;1.47;;
36253;SDS011;22291;52.250;21.228;2022-07-09T13:14:34;5.12;;;1.87;;
36253;SDS011;22291;52.250;21.228;2022-07-09T13:17:00;5.00;;;1.40;;
36253;SDS011;22291;52.250;21.228;2022-07-09T13:19:26;1.82;;;1.27;;
36253;SDS011;22291;52.250;21.228;2022-07-09T13:21:52;2.37;;;1.30;;
36253;SDS011;22291;52.250;21.228;2022-07-09T13:24:18;4.35;;;2.12;;
36253;SDS011;22291;52.250;21.228;2022-07-09T13:26:44;5.72;;;2.20;;
36253;SDS011;22291;52.250;21.228;2022-07-09T13:29:11;3.25;;;1.75;;
36253;SDS011;22291;52.250;21.228;2022-07-09T13:31:37;3.45;;;1.50;;
36253;SDS011;22291;52.250;21.228;2022-07-09T13:34:03;7.05;;;1.67;;
36253;SDS011;22291;52.250;21.228;2022-07-09T13:36:29;4.05;;;1.92;;
36253;SDS011;22291;52.250;21.228;2022-07-09T13:38:55;3.25;;;1.90;;
36253;SDS011;22291;52.250;21.228;2022-07-09T13:41:21;5.65;;;2.15;;
36253;SDS011;22291;52.250;21.228;2022-07-09T13:43:48;2.30;;;1.60;;
36253;SDS011;22291;52.250;21.228;2022-07-09T13:46:14;3.02;;;2.30;;
36253;SDS011;22291;52.250;21.228;2022-07-09T13:48:41;3.15;;;1.82;;
36253;SDS011;22291;52.250;21.228;2022-07-09T13:51:07;4.05;;;1.72;;
36253;SDS011;22291;52.250;21.228;2022-07-09T13:53:33;2.20;;;1.50;;
36253;SDS011;22291;52.250;21.228;2022-07-09T13:55:59;4.35;;;1.57;;
36253;SDS011;22291;52.250;21.228;2022-07-09T13:58:26;8.53;;;3.60;;
36253;SDS011;22291;52.250;21.228;2022-07-09T14:00:52;3.95;;;1.90;;
36253;SDS011;22291;52.250;21.228;2022-07-09T14:03:18;3.00;;;2.05;;
36253;SDS011;22291;52.250;21.228;2022-07-09T14:05:44;2.50;;;1.85;;
36253;SDS011;22291;52.250;21.228;2022-07-09T14:08:10;8.50;;;2.58;;
36253;SDS011;22291;52.250;21.228;2022-07-09T14:10:36;4.85;;;2.37;;
36253;SDS011;22291;52.250;21.228;2022-07-09T14:13:02;5.25;;;3.27;;
36253;SDS011;22291;52.250;21.228;2022-07-09T14:15:29;3.72;;;2.83;;
36253;SDS011;22291;52.250;21.228;2022-07-09T14:17:58;5.53;;;3.20;;
36253;SDS011;22291;52.250;21.228;2022-07-09T14:20:24;8.08;;;3.80;;
36253;SDS011;22291;52.250;21.228;2022-07-09T14:22:50;8.58;;;4.22;;
36253;SDS011;22291;52.250;21.228;2022-07-09T14:25:16;5.90;;;3.90;;
36253;SDS011;22291;52.250;21.228;2022-07-09T14:27:43;5.28;;;3.98;;
36253;SDS011;22291;52.250;21.228;2022-07-09T14:30:09;6.92;;;3.92;;
36253;SDS011;22291;52.250;21.228;2022-07-09T14:32:36;7.78;;;4.20;;
36253;SDS011;22291;52.250;21.228;2022-07-09T14:35:02;11.18;;;4.42;;
36253;SDS011;22291;52.250;21.228;2022-07-09T14:37:29;5.40;;;3.92;;
36253;SDS011;22291;52.250;21.228;2022-07-09T14:39:55;5.75;;;4.05;;
36253;SDS011;22291;52.250;21.228;2022-07-09T14:42:21;6.40;;;4.40;;